Time;durP1;ratioP1;P1;durP2;ratioP2;P2;SDS_P1;SDS_P2;PMS_P1;PMS_P2;Temp;Humidity;BMP_temperature;BMP_pressure;BME280_temperature;BME280_humidity;BME280_pressure;Samples;Min_cycle;Max_cycle;Signal;HPM_P1;HPM_P2
2023/03/29 00:01:06;;;;;;;7.85;3.60;;;5.20;99.90;;;;;;5113099;27;20047;-73
2023/03/29 00:03:33;;;;;;;5.72;3.72;;;5.10;99.90;;;;;;5112337;28;21299;-73
2023/03/29 00:06:04;;;;;;;6.25;3.80;;;5.10;99.90;;;;;;5119828;27;20523;-73
2023/03/29 00:08:32;;;;;;;6.20;3.53;;;5.30;99.90;;;;;;5121022;27;20495;-73
2023/03/29 00:10:59;;;;;;;5.40;3.80;;;5.20;99.90;;;;;;5127922;27;20511;-73
2023/03/29 00:13:27;;;;;;;8.00;4.13;;;5.10;99.90;;;;;;5126438;27;20040;-73
2023/03/29 00:15:55;;;;;;;8.40;4.03;;;5.10;99.90;;;;;;5109093;28;20040;-73
2023/03/29 00:18:21;;;;;;;8.35;4.20;;;5.10;99.90;;;;;;5126944;27;20054;-73
2023/03/29 00:20:54;;;;;;;5.60;4.05;;;5.10;99.90;;;;;;5127761;27;20039;-73
2023/03/29 00:23:21;;;;;;;8.68;3.80;;;5.00;99.90;;;;;;5127995;27;20027;-73
2023/03/29 00:25:47;;;;;;;8.95;3.95;;;5.00;99.90;;;;;;5119054;27;20048;-73
2023/03/29 00:28:13;;;;;;;8.35;3.20;;;5.00;99.90;;;;;;5124113;27;20097;-73
2023/03/29 00:30:39;;;;;;;7.80;3.80;;;5.00;99.90;;;;;;5124586;27;20039;-73
2023/03/29 00:33:06;;;;;;;8.07;4.18;;;5.00;99.90;;;;;;5136055;27;20162;-73
2023/03/29 00:35:32;;;;;;;6.65;3.58;;;5.00;99.90;;;;;;5121152;27;20043;-73
2023/03/29 00:37:57;;;;;;;6.68;3.60;;;5.00;99.90;;;;;;5128699;27;20047;-73
2023/03/29 00:40:23;;;;;;;6.53;3.20;;;5.00;99.90;;;;;;5120665;27;20043;-74
2023/03/29 00:42:48;;;;;;;8.48;4.15;;;5.00;99.90;;;;;;5127367;27;20066;-73
2023/03/29 00:45:22;;;;;;;8.32;3.88;;;5.00;99.90;;;;;;5121419;27;20506;-73
2023/03/29 00:47:52;;;;;;;6.55;3.40;;;5.00;99.90;;;;;;5106391;27;20070;-73
2023/03/29 00:50:28;;;;;;;5.32;2.92;;;5.00;99.90;;;;;;5116676;27;20071;-74
2023/03/29 00:53:20;;;;;;;6.25;3.53;;;5.10;99.90;;;;;;5116338;27;20086;-74
2023/03/29 00:56:10;;;;;;;8.98;3.30;;;5.00;99.90;;;;;;5109234;27;20051;-73
2023/03/29 00:58:38;;;;;;;5.97;3.03;;;5.10;99.90;;;;;;5114731;27;20047;-73
2023/03/29 01:01:09;;;;;;;7.43;3.38;;;5.10;99.90;;;;;;5116996;27;20484;-73
2023/03/29 01:03:45;;;;;;;5.82;3.28;;;5.10;99.90;;;;;;5114765;27;20028;-73
2023/03/29 01:06:13;;;;;;;9.90;3.60;;;5.10;99.90;;;;;;5101427;28;20043;-73
2023/03/29 01:08:44;;;;;;;;;;;5.10;99.90;;;;;;5119519;27;20492;-73
2023/03/29 01:11:13;;;;;;;7.15;3.22;;;5.10;99.90;;;;;;5133488;27;19945;-73
2023/03/29 01:13:57;;;;;;;4.90;3.05;;;5.10;99.90;;;;;;5129784;27;20047;-73
2023/03/29 01:16:24;;;;;;;6.47;3.17;;;5.10;99.90;;;;;;5095984;27;20404;-73
2023/03/29 01:18:51;;;;;;;5.15;3.30;;;5.10;99.90;;;;;;5121824;27;20035;-73
2023/03/29 01:21:43;;;;;;;6.97;3.42;;;5.10;99.90;;;;;;5126455;27;20088;-73
2023/03/29 01:24:36;;;;;;;7.55;3.63;;;5.10;99.90;;;;;;5126854;27;20130;-73
2023/03/29 01:27:14;;;;;;;7.70;3.58;;;5.10;99.90;;;;;;5124667;27;20122;-73
2023/03/29 01:29:56;;;;;;;8.60;3.42;;;5.40;99.90;;;;;;5128158;27;20131;-74
2023/03/29 01:32:34;;;;;;;7.80;3.50;;;5.10;99.90;;;;;;5116397;27;20051;-73
2023/03/29 01:35:09;;;;;;;8.35;3.42;;;5.20;99.90;;;;;;5130213;27;20043;-73
2023/03/29 01:37:56;;;;;;;7.25;3.33;;;5.10;99.90;;;;;;5119689;27;20039;-73
2023/03/29 01:40:23;;;;;;;8.27;2.90;;;5.10;99.90;;;;;;5106312;28;20115;-73
2023/03/29 01:42:55;;;;;;;6.85;3.50;;;5.10;99.90;;;;;;5122545;27;20054;-73
2023/03/29 01:45:39;;;;;;;6.47;3.33;;;5.10;99.90;;;;;;5118042;27;20052;-73
2023/03/29 01:48:17;;;;;;;7.30;3.65;;;5.20;99.90;;;;;;5132338;27;20035;-73
2023/03/29 01:50:50;;;;;;;10.60;4.20;;;5.20;99.90;;;;;;5126690;27;20043;-73
2023/03/29 01:53:37;;;;;;;6.45;3.50;;;5.20;99.90;;;;;;5117733;27;20105;-73
2023/03/29 01:56:31;;;;;;;8.98;3.92;;;5.20;99.90;;;;;;5112590;27;20515;-73
2023/03/29 01:59:01;;;;;;;9.15;3.65;;;5.20;99.90;;;;;;5119005;27;20047;-74
2023/03/29 02:01:33;;;;;;;6.90;3.88;;;5.10;99.90;;;;;;5116271;27;20040;-73
2023/03/29 02:04:03;;;;;;;7.30;3.75;;;5.10;99.90;;;;;;5120499;27;20368;-73
2023/03/29 02:06:31;;;;;;;7.80;3.75;;;5.20;99.90;;;;;;5096361;27;20051;-73
2023/03/29 02:08:57;;;;;;;8.45;4.30;;;5.20;99.90;;;;;;5129073;27;20484;-73
2023/03/29 02:11:25;;;;;;;8.20;4.15;;;5.10;99.90;;;;;;5120053;27;20071;-73
2023/03/29 02:13:51;;;;;;;10.05;4.80;;;5.50;99.90;;;;;;5122988;27;20036;-74
2023/03/29 02:16:18;;;;;;;10.07;3.95;;;5.20;99.90;;;;;;5121753;27;20055;-73
2023/03/29 02:18:47;;;;;;;7.50;4.30;;;5.10;99.90;;;;;;5126023;27;20484;-73
2023/03/29 02:21:22;;;;;;;9.68;4.40;;;6.20;99.90;;;;;;5129509;27;20507;-74
2023/03/29 02:23:53;;;;;;;6.30;4.32;;;5.10;99.90;;;;;;5108833;27;20035;-74
2023/03/29 02:26:20;;;;;;;7.68;4.10;;;5.20;99.90;;;;;;5129366;27;20044;-74
2023/03/29 02:28:45;;;;;;;10.82;4.43;;;5.10;99.90;;;;;;5095733;27;20043;-74
2023/03/29 02:31:20;;;;;;;10.38;4.93;;;5.20;99.90;;;;;;5106364;28;20191;-73
2023/03/29 02:34:12;;;;;;;13.35;4.88;;;5.10;99.90;;;;;;5125213;27;20048;-73
2023/03/29 02:36:45;;;;;;;9.85;4.43;;;5.10;99.90;;;;;;5131040;27;20488;-73
2023/03/29 02:39:14;;;;;;;10.02;5.00;;;5.20;99.90;;;;;;5109139;27;20039;-73
2023/03/29 02:41:42;;;;;;;11.43;5.30;;;5.10;99.90;;;;;;5120765;27;20048;-73
2023/03/29 02:44:10;;;;;;;11.15;5.53;;;5.20;99.90;;;;;;5119724;27;20129;-73
2023/03/29 02:46:37;;;;;;;;;;;5.50;99.90;;;;;;5115813;27;20095;-74
2023/03/29 02:49:04;;;;;;;10.20;4.50;;;5.20;99.90;;;;;;5115851;27;19919;-72
2023/03/29 02:51:34;;;;;;;12.60;4.97;;;4.70;99.90;;;;;;5130595;27;20084;-74
2023/03/29 02:54:12;;;;;;;9.70;5.00;;;5.20;99.90;;;;;;5124278;27;20047;-72
2023/03/29 02:56:47;;;;;;;8.77;5.50;;;5.20;99.90;;;;;;5112458;27;20042;-73
2023/03/29 02:59:12;;;;;;;8.30;5.18;;;5.20;99.90;;;;;;5118234;27;20303;-72
2023/03/29 03:01:41;;;;;;;10.10;5.55;;;5.20;99.90;;;;;;5116184;27;20039;-72
2023/03/29 03:04:08;;;;;;;8.35;4.72;;;5.20;99.90;;;;;;5099969;27;20031;-73
2023/03/29 03:06:35;;;;;;;9.00;5.05;;;5.20;99.90;;;;;;5128608;27;20040;-72
2023/03/29 03:09:01;;;;;;;12.38;5.30;;;5.20;99.90;;;;;;5114168;28;20621;-73
2023/03/29 03:11:27;;;;;;;6.90;4.93;;;5.20;99.90;;;;;;5119138;27;20080;-72
2023/03/29 03:13:52;;;;;;;10.00;5.63;;;5.20;99.90;;;;;;5126821;27;20388;-73
2023/03/29 03:16:18;;;;;;;10.52;5.00;;;5.20;99.90;;;;;;5118991;27;20032;-72
2023/03/29 03:18:44;;;;;;;8.57;5.03;;;5.20;99.90;;;;;;5115302;28;20180;-73
2023/03/29 03:21:10;;;;;;;8.95;5.22;;;5.20;99.90;;;;;;5126467;28;20198;-72
2023/03/29 03:23:36;;;;;;;9.07;4.93;;;5.20;99.90;;;;;;5099874;28;20131;-72
2023/03/29 03:26:01;;;;;;;13.18;5.70;;;5.20;99.90;;;;;;5118582;27;20388;-73
2023/03/29 03:28:27;;;;;;;10.77;5.03;;;5.30;99.90;;;;;;5127660;27;20047;-72
2023/03/29 03:30:53;;;;;;;7.93;5.20;;;5.30;99.90;;;;;;5114962;27;20268;-72
2023/03/29 03:33:19;;;;;;;8.27;4.78;;;5.30;99.90;;;;;;5122784;28;20043;-73
2023/03/29 03:35:48;;;;;;;8.55;5.47;;;5.40;99.90;;;;;;5116574;27;20408;-72
2023/03/29 03:38:14;;;;;;;8.25;4.90;;;5.30;99.90;;;;;;5116914;28;20050;-73
2023/03/29 03:40:39;;;;;;;11.75;5.13;;;5.20;99.90;;;;;;5132688;27;20055;-73
2023/03/29 03:43:05;;;;;;;7.60;4.82;;;5.30;99.90;;;;;;5091222;27;20432;-73
2023/03/29 03:45:31;;;;;;;9.63;4.95;;;5.30;99.90;;;;;;5123483;27;20031;-73
2023/03/29 03:47:57;;;;;;;10.98;5.07;;;5.30;99.90;;;;;;5103084;27;20042;-73
2023/03/29 03:50:23;;;;;;;12.45;4.95;;;5.30;99.90;;;;;;5131755;27;21707;-73
2023/03/29 03:52:48;;;;;;;10.07;5.32;;;5.30;99.90;;;;;;5130047;27;20126;-73
2023/03/29 03:55:15;;;;;;;11.23;5.78;;;5.30;99.90;;;;;;5127975;27;20440;-72
2023/03/29 03:57:40;;;;;;;12.05;5.30;;;5.30;99.90;;;;;;5127040;27;20035;-73
2023/03/29 04:00:16;;;;;;;8.38;4.80;;;5.30;99.90;;;;;;5122180;27;20043;-72
2023/03/29 04:02:42;;;;;;;10.20;5.18;;;5.30;99.90;;;;;;5125068;27;20476;-73
2023/03/29 04:05:07;;;;;;;8.57;5.25;;;5.40;99.90;;;;;;5128889;27;20045;-73
2023/03/29 04:07:33;;;;;;;9.73;5.47;;;5.30;99.90;;;;;;5125481;27;20070;-73
2023/03/29 04:09:59;;;;;;;8.20;4.82;;;5.40;99.90;;;;;;5119024;27;20039;-73
2023/03/29 04:12:24;;;;;;;8.80;5.70;;;5.40;99.90;;;;;;5117531;27;20047;-73
2023/03/29 04:14:50;;;;;;;10.85;5.22;;;5.30;99.90;;;;;;5105631;27;20073;-72
2023/03/29 04:17:16;;;;;;;9.55;5.03;;;5.40;99.90;;;;;;5120453;27;20043;-72
2023/03/29 04:19:41;;;;;;;10.43;6.07;;;5.40;99.90;;;;;;5121657;27;20034;-73
2023/03/29 04:22:07;;;;;;;10.20;5.88;;;5.30;99.90;;;;;;5109721;27;20081;-74
2023/03/29 04:24:32;;;;;;;11.65;6.00;;;5.80;99.90;;;;;;5127847;27;20096;-72
2023/03/29 04:26:58;;;;;;;9.68;5.82;;;5.40;99.90;;;;;;5125902;27;20066;-72
2023/03/29 04:29:24;;;;;;;12.50;5.95;;;5.30;99.90;;;;;;5132716;27;20504;-72
2023/03/29 04:31:49;;;;;;;10.73;5.80;;;5.40;99.90;;;;;;5127416;27;20162;-72
2023/03/29 04:34:15;;;;;;;14.00;7.28;;;5.40;99.90;;;;;;5123462;27;20123;-72
2023/03/29 04:36:42;;;;;;;13.13;6.25;;;5.40;99.90;;;;;;5115485;27;20134;-74
2023/03/29 04:39:08;;;;;;;12.40;6.07;;;5.40;99.90;;;;;;5117939;27;20504;-74
2023/03/29 04:41:34;;;;;;;11.57;5.90;;;5.40;99.90;;;;;;5120568;27;20046;-74
2023/03/29 04:44:01;;;;;;;14.88;6.70;;;5.40;99.90;;;;;;5119347;27;20043;-74
2023/03/29 04:46:27;;;;;;;13.30;6.07;;;5.40;99.90;;;;;;5129937;27;20054;-74
2023/03/29 04:48:53;;;;;;;10.00;5.93;;;5.40;99.90;;;;;;5128452;27;20039;-74
2023/03/29 04:51:20;;;;;;;15.50;6.95;;;5.40;99.90;;;;;;5118760;27;20051;-74
2023/03/29 04:53:49;;;;;;;9.85;6.43;;;5.40;99.90;;;;;;5127528;27;20166;-74
2023/03/29 04:56:15;;;;;;;10.95;6.80;;;5.40;99.90;;;;;;5120519;27;20048;-75
2023/03/29 04:58:41;;;;;;;17.55;6.78;;;5.70;99.90;;;;;;5123868;27;20450;-73
2023/03/29 05:01:06;;;;;;;12.40;6.18;;;5.40;99.90;;;;;;5125219;27;20042;-73
2023/03/29 05:03:33;;;;;;;11.32;6.72;;;5.40;99.90;;;;;;5120983;27;20071;-73
2023/03/29 05:06:07;;;;;;;11.05;6.60;;;5.50;99.90;;;;;;5117854;27;20040;-73
2023/03/29 05:08:37;;;;;;;17.45;6.47;;;5.50;99.90;;;;;;5125035;27;20035;-74
2023/03/29 05:11:03;;;;;;;12.88;6.63;;;5.50;99.90;;;;;;5133327;27;20035;-76
2023/03/29 05:13:29;;;;;;;12.98;6.93;;;5.50;99.90;;;;;;5121484;27;20047;-71
2023/03/29 05:15:55;;;;;;;11.68;6.60;;;5.50;99.90;;;;;;5123099;27;20394;-72
2023/03/29 05:18:21;;;;;;;11.02;6.45;;;5.50;99.90;;;;;;5127591;27;20120;-73
2023/03/29 05:20:49;;;;;;;13.60;7.07;;;5.50;99.90;;;;;;5079286;27;20773;-72
2023/03/29 05:23:16;;;;;;;9.55;6.95;;;5.50;99.90;;;;;;5122591;27;20043;-73
2023/03/29 05:25:42;;;;;;;14.27;7.13;;;5.50;99.90;;;;;;5119255;27;20066;-73
2023/03/29 05:28:08;;;;;;;14.00;7.22;;;5.50;99.90;;;;;;5120839;27;20526;-73
2023/03/29 05:30:34;;;;;;;14.23;7.03;;;5.50;99.90;;;;;;5122655;27;20047;-73
2023/03/29 05:33:01;;;;;;;12.02;6.85;;;5.60;99.90;;;;;;5106575;27;20051;-73
2023/03/29 05:35:27;;;;;;;12.30;7.63;;;5.60;99.90;;;;;;5120846;27;20151;-73
2023/03/29 05:37:54;;;;;;;13.43;7.32;;;5.60;99.90;;;;;;5126281;27;20043;-72
2023/03/29 05:40:19;;;;;;;14.20;7.25;;;5.60;99.90;;;;;;5120425;27;20046;-73
2023/03/29 05:42:45;;;;;;;11.60;7.40;;;5.60;99.90;;;;;;5119979;27;20035;-73
2023/03/29 05:45:11;;;;;;;11.63;6.60;;;5.60;99.90;;;;;;5114692;27;20484;-72
2023/03/29 05:47:37;;;;;;;17.65;7.53;;;5.70;99.90;;;;;;5120091;27;20043;-73
2023/03/29 05:50:03;;;;;;;11.60;7.38;;;5.70;99.90;;;;;;5111431;27;20086;-73
2023/03/29 05:52:28;;;;;;;14.38;7.25;;;5.70;99.90;;;;;;5117788;27;20130;-73
2023/03/29 05:54:55;;;;;;;13.93;7.55;;;5.70;99.90;;;;;;5115015;27;20114;-73
2023/03/29 05:57:21;;;;;;;14.70;8.00;;;5.70;99.90;;;;;;5123354;27;20037;-73
2023/03/29 05:59:47;;;;;;;14.55;7.20;;;5.70;99.90;;;;;;5133013;27;20043;-73
2023/03/29 06:02:14;;;;;;;17.15;7.50;;;5.70;99.90;;;;;;5116477;27;20055;-75
2023/03/29 06:04:40;;;;;;;12.52;7.18;;;6.00;99.90;;;;;;5114232;28;20036;-74
2023/03/29 06:07:07;;;;;;;13.75;7.65;;;5.80;99.90;;;;;;5115912;27;20115;-74
2023/03/29 06:09:32;;;;;;;14.77;8.73;;;5.80;99.90;;;;;;5122281;27;20074;-73
2023/03/29 06:12:00;;;;;;;12.13;7.72;;;5.80;99.90;;;;;;5128305;27;20067;-74
2023/03/29 06:14:26;;;;;;;17.50;8.18;;;5.80;99.90;;;;;;5122333;27;20047;-73
2023/03/29 06:16:52;;;;;;;14.20;8.18;;;5.80;99.90;;;;;;5124754;27;20123;-73
2023/03/29 06:19:18;;;;;;;14.60;8.07;;;5.90;99.90;;;;;;5119472;27;20486;-73
2023/03/29 06:21:44;;;;;;;19.65;8.30;;;5.90;99.90;;;;;;5112152;28;20306;-74
2023/03/29 06:24:10;;;;;;;14.50;8.20;;;5.90;99.90;;;;;;5113023;27;20036;-74
2023/03/29 06:26:35;;;;;;;17.02;9.35;;;6.00;99.90;;;;;;5113040;27;20046;-73
2023/03/29 06:29:03;;;;;;;12.30;8.32;;;6.00;99.90;;;;;;5114818;28;20043;-73
2023/03/29 06:31:30;;;;;;;13.27;8.57;;;6.00;99.90;;;;;;5118869;27;20050;-74
2023/03/29 06:33:57;;;;;;;16.45;8.27;;;6.00;99.90;;;;;;5153344;27;20038;-74
2023/03/29 06:36:23;;;;;;;14.38;8.02;;;6.00;99.90;;;;;;5146099;27;20051;-74
2023/03/29 06:38:48;;;;;;;12.35;8.02;;;6.10;99.90;;;;;;5122425;27;20388;-72
2023/03/29 06:41:14;;;;;;;16.58;9.30;;;6.10;99.90;;;;;;5123751;27;20036;-71
2023/03/29 06:43:39;;;;;;;17.05;8.90;;;6.20;99.90;;;;;;5120799;28;20036;-71
2023/03/29 06:46:10;;;;;;;16.55;9.50;;;6.20;99.90;;;;;;5102510;27;20092;-71
2023/03/29 06:48:37;;;;;;;21.45;9.52;;;6.30;99.90;;;;;;5132969;27;20047;-72
2023/03/29 06:51:03;;;;;;;16.52;9.10;;;6.30;99.90;;;;;;5132122;27;20043;-72
2023/03/29 06:53:29;;;;;;;13.20;8.70;;;6.40;99.90;;;;;;5139123;27;20055;-73
2023/03/29 06:55:55;;;;;;;13.98;9.27;;;6.50;99.90;;;;;;5137284;27;20049;-73
2023/03/29 06:58:20;;;;;;;13.88;8.35;;;6.50;99.90;;;;;;5141586;27;20042;-73
2023/03/29 07:00:46;;;;;;;14.25;8.60;;;6.50;99.90;;;;;;5140039;27;20039;-72
2023/03/29 07:03:18;;;;;;;14.43;8.85;;;6.60;99.90;;;;;;5121566;27;20036;-72
2023/03/29 07:05:46;;;;;;;13.45;8.52;;;6.60;99.90;;;;;;5119910;28;20048;-73
2023/03/29 07:08:14;;;;;;;15.07;8.80;;;6.70;99.90;;;;;;5107927;28;20040;-73
2023/03/29 07:10:46;;;;;;;16.45;8.82;;;6.80;99.90;;;;;;5117821;28;20114;-73
2023/03/29 07:13:12;;;;;;;17.27;8.70;;;6.90;99.90;;;;;;5117983;28;20035;-73
2023/03/29 07:15:42;;;;;;;12.15;8.65;;;7.00;99.90;;;;;;5116707;28;20039;-73
2023/03/29 07:18:09;;;;;;;13.38;8.07;;;7.10;99.90;;;;;;5138381;27;20047;-73
2023/03/29 07:20:34;;;;;;;20.75;8.63;;;7.30;99.90;;;;;;5128057;28;20412;-73
2023/03/29 07:23:00;;;;;;;14.07;8.27;;;7.30;99.90;;;;;;5117214;28;20031;-73
2023/03/29 07:25:26;;;;;;;13.15;8.15;;;7.40;99.90;;;;;;5120882;28;20044;-73
2023/03/29 07:27:52;;;;;;;15.48;8.18;;;7.60;99.90;;;;;;5119166;28;20070;-73
2023/03/29 07:30:25;;;;;;;15.45;8.27;;;7.80;99.90;;;;;;5101595;28;20095;-73
2023/03/29 07:32:51;;;;;;;17.60;7.45;;;7.90;99.90;;;;;;5143361;27;20043;-73
2023/03/29 07:35:17;;;;;;;15.18;8.05;;;7.90;99.90;;;;;;5141542;27;20073;-73
2023/03/29 07:37:45;;;;;;;10.77;7.18;;;7.90;99.90;;;;;;5143925;27;20043;-73
2023/03/29 07:40:17;;;;;;;11.43;7.68;;;7.90;99.90;;;;;;5141900;28;20046;-73
2023/03/29 07:42:45;;;;;;;16.30;8.10;;;7.90;99.90;;;;;;5119134;28;20221;-72
2023/03/29 07:45:12;;;;;;;;;;;7.90;99.90;;;;;;5119949;27;20124;-72
2023/03/29 07:47:39;;;;;;;12.60;7.85;;;7.80;99.90;;;;;;5111748;28;20334;-72
2023/03/29 07:50:06;;;;;;;11.52;7.35;;;7.80;99.90;;;;;;5127374;28;20119;-72
2023/03/29 07:52:32;;;;;;;12.25;8.00;;;7.70;99.90;;;;;;5131664;28;20116;-72
2023/03/29 07:54:58;;;;;;;15.02;8.18;;;7.70;99.90;;;;;;5139936;28;20055;-72
2023/03/29 07:57:25;;;;;;;14.15;8.10;;;7.70;99.90;;;;;;5139157;28;20089;-72
2023/03/29 07:59:51;;;;;;;13.77;7.13;;;7.70;99.90;;;;;;5140512;28;20083;-72
2023/03/29 08:02:18;;;;;;;19.73;7.75;;;7.70;99.90;;;;;;5139203;28;20035;-72
2023/03/29 08:04:44;;;;;;;13.82;7.53;;;7.80;99.90;;;;;;5138610;28;20088;-72
2023/03/29 08:07:11;;;;;;;15.02;8.15;;;7.80;99.90;;;;;;5134733;28;20085;-72
2023/03/29 08:09:37;;;;;;;11.25;7.68;;;7.90;99.90;;;;;;5114983;28;20071;-72
2023/03/29 08:12:03;;;;;;;12.90;8.57;;;7.90;99.90;;;;;;5118045;28;20070;-72
2023/03/29 08:14:29;;;;;;;10.65;8.30;;;8.00;99.90;;;;;;5115223;28;20058;-72
2023/03/29 08:16:55;;;;;;;15.90;7.95;;;8.30;99.90;;;;;;5115249;28;20124;-73
2023/03/29 08:19:20;;;;;;;11.88;7.90;;;8.40;99.90;;;;;;5113190;28;20062;-73
2023/03/29 08:21:46;;;;;;;12.73;7.78;;;8.50;99.90;;;;;;5114524;28;20047;-73
2023/03/29 08:24:13;;;;;;;15.60;7.65;;;8.20;99.90;;;;;;5114505;28;20089;-72
2023/03/29 08:26:38;;;;;;;26.33;7.22;;;8.30;99.90;;;;;;5098430;27;20143;-72
2023/03/29 08:29:04;;;;;;;11.68;7.53;;;8.30;99.90;;;;;;5138634;27;20039;-73
2023/03/29 08:31:30;;;;;;;12.38;7.38;;;8.30;99.90;;;;;;5103126;28;20039;-73
2023/03/29 08:33:56;;;;;;;16.23;8.18;;;8.30;99.90;;;;;;5142331;27;20152;-73
2023/03/29 08:36:21;;;;;;;11.52;7.90;;;8.40;99.90;;;;;;5145763;27;20043;-73
2023/03/29 08:38:47;;;;;;;14.00;7.68;;;8.50;99.90;;;;;;5147391;27;20039;-73
2023/03/29 08:41:24;;;;;;;13.63;7.68;;;8.70;99.90;;;;;;5120444;28;20492;-73
2023/03/29 08:44:21;;;;;;;10.88;7.18;;;8.80;99.90;;;;;;5100766;28;20040;-72
2023/03/29 08:47:00;;;;;;;16.02;7.90;;;8.80;99.90;;;;;;5121401;27;20459;-73
2023/03/29 08:49:27;;;;;;;15.43;7.47;;;8.80;99.90;;;;;;5138496;27;20070;-72
2023/03/29 08:51:59;;;;;;;13.68;7.75;;;8.80;99.90;;;;;;5117716;27;20069;-72
2023/03/29 08:54:31;;;;;;;12.10;7.13;;;8.90;99.90;;;;;;5136797;27;20132;-72
2023/03/29 08:57:06;;;;;;;14.73;7.63;;;9.10;99.90;;;;;;5137419;27;20043;-72
2023/03/29 08:59:33;;;;;;;13.30;7.10;;;9.20;99.90;;;;;;5130459;27;20035;-72
2023/03/29 09:02:02;;;;;;;15.60;7.15;;;9.40;99.90;;;;;;5116585;27;20088;-72
2023/03/29 09:04:35;;;;;;;16.38;7.35;;;9.50;99.90;;;;;;5116480;28;20059;-72
2023/03/29 09:07:10;;;;;;;11.35;7.60;;;9.60;99.90;;;;;;5097791;28;20078;-72
2023/03/29 09:09:37;;;;;;;13.68;7.28;;;9.70;99.90;;;;;;5115895;27;20439;-73
2023/03/29 09:12:27;;;;;;;12.02;7.53;;;9.70;99.90;;;;;;5118465;27;20051;-73
2023/03/29 09:15:09;;;;;;;12.38;7.20;;;9.70;99.90;;;;;;5136891;27;20082;-72
2023/03/29 09:17:57;;;;;;;11.68;7.25;;;9.90;99.90;;;;;;5130105;27;20099;-72
2023/03/29 09:20:55;;;;;;;13.48;7.15;;;10.00;99.90;;;;;;5115311;28;20519;-72
2023/03/29 09:23:35;;;;;;;13.25;7.55;;;10.20;99.90;;;;;;5116957;27;20062;-73
2023/03/29 09:26:27;;;;;;;19.27;7.65;;;10.40;99.90;;;;;;5135833;27;20047;-73
2023/03/29 09:29:12;;;;;;;16.70;7.68;;;10.50;99.90;;;;;;5130277;27;20048;-72
2023/03/29 09:31:42;;;;;;;12.07;7.78;;;10.60;99.90;;;;;;5125584;27;20043;-72
2023/03/29 09:34:19;;;;;;;17.02;7.75;;;10.60;99.90;;;;;;5117914;27;20035;-73
2023/03/29 09:36:52;;;;;;;17.80;9.05;;;10.70;99.90;;;;;;5120372;27;20081;-72
2023/03/29 09:39:22;;;;;;;15.27;8.00;;;10.70;99.90;;;;;;5115009;28;20046;-73
2023/03/29 09:42:04;;;;;;;16.45;8.15;;;10.80;99.90;;;;;;5124307;27;20249;-73
2023/03/29 09:44:42;;;;;;;17.88;8.10;;;10.80;99.90;;;;;;5122383;27;20480;-73
2023/03/29 09:47:36;;;;;;;16.23;8.23;;;10.80;99.90;;;;;;5127790;27;20043;-73
2023/03/29 09:50:15;;;;;;;18.08;8.15;;;10.80;99.90;;;;;;5142807;27;20549;-73
2023/03/29 09:52:41;;;;;;;17.52;8.45;;;10.90;99.90;;;;;;5131930;27;20090;-73
2023/03/29 09:55:11;;;;;;;16.10;8.40;;;11.00;99.90;;;;;;5120064;27;20100;-73
2023/03/29 09:57:37;;;;;;;20.42;8.68;;;11.00;99.90;;;;;;5128794;27;20054;-74
2023/03/29 10:00:04;;;;;;;15.73;9.15;;;10.90;99.90;;;;;;5123557;27;20117;-74
2023/03/29 10:02:31;;;;;;;23.58;8.50;;;11.00;99.90;;;;;;5123093;27;20044;-74
2023/03/29 10:05:02;;;;;;;17.83;9.35;;;11.20;99.90;;;;;;5122506;27;20043;-74
2023/03/29 10:07:45;;;;;;;22.58;9.60;;;11.00;99.90;;;;;;5134408;27;20047;-74
2023/03/29 10:10:26;;;;;;;17.73;9.20;;;11.00;99.90;;;;;;5134100;27;20039;-75
2023/03/29 10:12:56;;;;;;;17.35;9.55;;;11.00;99.90;;;;;;5122713;27;20147;-74
2023/03/29 10:15:22;;;;;;;16.90;9.25;;;11.20;99.90;;;;;;5116032;27;20501;-73
2023/03/29 10:17:48;;;;;;;17.45;9.43;;;11.00;99.90;;;;;;5115306;27;20127;-73
2023/03/29 10:20:17;;;;;;;19.15;9.73;;;11.00;99.90;;;;;;5099639;28;20036;-73
2023/03/29 10:22:55;;;;;;;20.63;9.07;;;11.00;99.90;;;;;;5108554;27;20087;-73
2023/03/29 10:25:31;;;;;;;17.83;10.05;;;11.00;99.90;;;;;;5127687;27;20031;-73
2023/03/29 10:28:06;;;;;;;15.88;9.20;;;11.00;99.90;;;;;;5125933;27;20039;-74
2023/03/29 10:30:36;;;;;;;14.32;9.30;;;11.00;99.90;;;;;;5120016;27;20074;-74
2023/03/29 10:33:02;;;;;;;22.15;10.27;;;11.00;99.90;;;;;;5132359;27;20039;-73
2023/03/29 10:35:40;;;;;;;15.45;9.88;;;11.00;99.90;;;;;;5122519;27;20031;-72
2023/03/29 10:38:11;;;;;;;19.47;9.17;;;11.00;99.90;;;;;;5118281;27;20054;-73
2023/03/29 10:40:44;;;;;;;20.23;9.80;;;11.00;99.90;;;;;;5123197;27;20289;-72
2023/03/29 10:43:34;;;;;;;18.63;10.93;;;11.00;99.90;;;;;;5129192;27;20047;-71
2023/03/29 10:46:18;;;;;;;20.38;10.23;;;11.10;99.90;;;;;;5113164;27;20145;-73
2023/03/29 10:48:49;;;;;;;22.58;10.98;;;11.10;99.90;;;;;;5094725;28;20039;-73
2023/03/29 10:51:17;;;;;;;20.73;11.02;;;11.20;99.90;;;;;;5121788;27;20517;-72
2023/03/29 10:53:42;;;;;;;19.15;10.50;;;11.30;99.90;;;;;;5130705;27;20051;-72
2023/03/29 10:56:37;;;;;;;16.25;10.20;;;11.40;99.90;;;;;;5118541;27;20046;-74
2023/03/29 10:59:26;;;;;;;17.73;10.07;;;11.50;99.90;;;;;;5122456;27;20098;-72
2023/03/29 11:02:13;;;;;;;22.42;11.38;;;11.60;99.90;;;;;;5118721;27;20065;-71
2023/03/29 11:04:51;;;;;;;16.90;10.77;;;11.70;99.90;;;;;;5121424;27;20506;-72
2023/03/29 11:07:21;;;;;;;16.17;9.95;;;11.80;99.90;;;;;;5117941;27;20047;-72
2023/03/29 11:09:50;;;;;;;24.80;12.15;;;12.00;99.90;;;;;;5105428;27;20495;-72
2023/03/29 11:12:26;;;;;;;15.00;9.68;;;12.20;99.90;;;;;;5115619;27;20426;-72
2023/03/29 11:15:21;;;;;;;19.80;11.38;;;12.50;99.90;;;;;;5115941;28;20048;-73
2023/03/29 11:18:05;;;;;;;16.25;9.73;;;12.70;99.90;;;;;;5119345;27;20078;-72
2023/03/29 11:21:04;;;;;;;18.58;11.02;;;13.00;99.90;;;;;;5114322;28;20035;-72
2023/03/29 11:23:44;;;;;;;19.80;10.88;;;13.20;99.90;;;;;;5121169;28;20054;-71
2023/03/29 11:26:33;;;;;;;20.73;10.82;;;13.60;99.90;;;;;;5122521;28;20062;-71
2023/03/29 11:28:59;;;;;;;19.88;10.55;;;13.90;99.90;;;;;;5114206;27;20047;-72
2023/03/29 11:31:30;;;;;;;15.70;10.38;;;14.00;99.90;;;;;;5124247;28;20062;-73
2023/03/29 11:34:23;;;;;;;16.70;10.18;;;14.20;99.90;;;;;;5134067;27;20043;-72
2023/03/29 11:37:04;;;;;;;16.70;10.00;;;14.40;99.90;;;;;;5112571;28;20082;-71
2023/03/29 11:39:33;;;;;;;24.38;10.77;;;14.50;99.90;;;;;;5125860;27;20130;-73
2023/03/29 11:42:07;;;;;;;13.30;10.05;;;14.40;99.90;;;;;;5120891;28;20039;-72
2023/03/29 11:44:34;;;;;;;16.52;10.00;;;14.20;99.90;;;;;;5129035;28;20100;-72
2023/03/29 11:47:15;;;;;;;18.05;10.05;;;14.10;99.90;;;;;;5122165;27;20035;-72
2023/03/29 11:50:02;;;;;;;16.67;10.48;;;14.10;99.90;;;;;;5132629;28;20122;-72
2023/03/29 11:52:41;;;;;;;18.27;9.68;;;14.10;99.90;;;;;;5131731;27;20074;-72
2023/03/29 11:55:29;;;;;;;15.60;10.75;;;14.00;99.90;;;;;;5116946;27;20035;-72
2023/03/29 11:58:19;;;;;;;18.75;10.25;;;13.90;99.90;;;;;;5144194;27;20042;-73
2023/03/29 12:00:54;;;;;;;15.90;9.88;;;14.00;99.90;;;;;;5134610;27;20039;-72
2023/03/29 12:03:44;;;;;;;21.83;10.65;;;14.10;99.90;;;;;;5136062;27;20035;-72
2023/03/29 12:06:20;;;;;;;15.88;9.73;;;14.10;99.90;;;;;;5133036;27;20393;-72
2023/03/29 12:08:48;;;;;;;15.30;9.65;;;14.00;99.90;;;;;;5136688;27;20464;-73
2023/03/29 12:11:41;;;;;;;15.27;9.38;;;14.00;99.90;;;;;;5136882;27;20114;-72
2023/03/29 12:14:22;;;;;;;15.25;9.00;;;14.10;99.90;;;;;;5136192;27;20118;-73
2023/03/29 12:16:52;;;;;;;15.02;9.57;;;14.20;99.90;;;;;;5122293;27;20126;-73
2023/03/29 12:19:28;;;;;;;14.00;9.20;;;14.20;99.90;;;;;;5116592;27;20035;-73
2023/03/29 12:21:56;;;;;;;14.75;9.00;;;14.40;99.90;;;;;;5116526;27;20051;-73
2023/03/29 12:24:24;;;;;;;;;;;14.50;99.90;;;;;;5112426;28;20047;-72
2023/03/29 12:27:11;;;;;;;13.73;8.10;;;14.60;99.90;;;;;;5132331;27;19966;-72
2023/03/29 12:29:42;;;;;;;14.75;8.98;;;14.80;99.90;;;;;;5136692;27;20043;-73
2023/03/29 12:32:42;;;;;;;15.98;8.32;;;15.00;99.90;;;;;;5131675;27;20100;-73
2023/03/29 12:35:20;;;;;;;12.25;8.57;;;15.20;99.90;;;;;;5116646;28;20481;-73
2023/03/29 12:37:58;;;;;;;12.48;8.38;;;15.40;99.90;;;;;;5128972;27;20062;-73
2023/03/29 12:40:27;;;;;;;14.70;7.82;;;15.40;99.90;;;;;;5121483;27;20522;-73
2023/03/29 12:43:04;;;;;;;12.15;8.52;;;15.40;99.90;;;;;;5131142;27;20374;-73
2023/03/29 12:45:47;;;;;;;13.77;7.82;;;15.40;99.90;;;;;;5117564;27;20106;-70
2023/03/29 12:48:17;;;;;;;11.15;7.90;;;15.30;99.90;;;;;;5135621;27;20041;-72
2023/03/29 12:50:53;;;;;;;11.88;7.53;;;15.30;99.90;;;;;;5122245;27;20039;-73
2023/03/29 12:53:26;;;;;;;11.95;7.40;;;15.30;99.90;;;;;;5126068;27;20058;-70
2023/03/29 12:56:10;;;;;;;15.60;7.70;;;15.40;99.90;;;;;;5116062;27;20043;-71
2023/03/29 12:58:42;;;;;;;12.02;7.43;;;15.30;99.90;;;;;;5131789;27;20051;-71
2023/03/29 13:01:22;;;;;;;14.55;7.93;;;15.20;99.90;;;;;;5133685;27;20068;-71
2023/03/29 13:03:51;;;;;;;9.40;6.93;;;15.10;99.90;;;;;;5116250;28;20131;-71
2023/03/29 13:06:34;;;;;;;14.10;8.00;;;15.10;99.90;;;;;;5116565;27;20040;-73
2023/03/29 13:09:21;;;;;;;11.40;8.18;;;15.10;99.90;;;;;;5136126;27;20096;-72